Time;durP1;ratioP1;P1;durP2;ratioP2;P2;SDS_P1;SDS_P2;PMS_P1;PMS_P2;Temp;Humidity;BMP_temperature;BMP_pressure;BME280_temperature;BME280_humidity;BME280_pressure;Samples;Min_cycle;Max_cycle;Signal;HPM_P1;HPM_P2
2021/08/23 00:01:02;;;;;;;7.20;6.60;;;;;;;22.44;56.83;95147.56;5075815;28;20442;-79
2021/08/23 00:03:29;;;;;;;7.63;6.90;;;;;;;22.31;56.99;95151.00;5075752;28;20933;-79
2021/08/23 00:05:56;;;;;;;8.40;7.40;;;;;;;22.32;57.09;95149.97;5076154;28;20442;-79
2021/08/23 00:08:25;;;;;;;8.17;7.47;;;;;;;22.27;57.44;95147.06;5075545;28;20946;-78
2021/08/23 00:10:52;;;;;;;8.20;6.50;;;;;;;22.24;57.58;95156.28;5075792;28;20474;-79
2021/08/23 00:13:20;;;;;;;8.23;7.50;;;;;;;22.27;57.40;95157.78;5075570;28;20541;-79
2021/08/23 00:15:52;;;;;;;7.57;6.80;;;;;;;22.23;57.83;95148.47;5075695;28;20442;-78
2021/08/23 00:18:19;;;;;;;9.63;7.50;;;;;;;22.15;58.13;95149.44;5075706;28;20509;-79
2021/08/23 00:20:51;;;;;;;7.90;7.10;;;;;;;22.13;57.98;95150.66;5075558;28;20481;-78
2021/08/23 00:23:20;;;;;;;10.83;7.60;;;;;;;22.15;57.86;95153.97;5056684;28;20798;-79
2021/08/23 00:25:48;;;;;;;9.07;7.60;;;;;;;22.18;57.64;95142.88;5075909;28;20917;-79
2021/08/23 00:28:15;;;;;;;10.47;7.03;;;;;;;22.15;57.94;95148.63;5075895;28;20449;-79
2021/08/23 00:30:44;;;;;;;8.13;7.30;;;;;;;22.17;57.79;95146.56;5075539;28;20800;-78
2021/08/23 00:33:10;;;;;;;6.90;6.30;;;;;;;22.17;57.87;95142.06;5040282;28;20521;-79
2021/08/23 00:35:37;;;;;;;7.50;6.70;;;;;;;22.18;57.65;95154.41;5075279;28;20445;-79
2021/08/23 00:38:05;;;;;;;7.77;7.07;;;;;;;22.17;57.92;95155.41;5075102;28;20461;-78
2021/08/23 00:40:32;;;;;;;7.73;7.00;;;;;;;22.18;58.04;95154.41;5075146;28;20485;-78
2021/08/23 00:42:59;;;;;;;7.90;7.20;;;;;;;22.08;58.04;95153.94;5075415;28;20530;-79
2021/08/23 00:45:26;;;;;;;8.80;7.27;;;;;;;22.12;58.03;95162.38;5075015;28;20532;-79
2021/08/23 00:47:55;;;;;;;13.60;7.57;;;;;;;21.94;58.86;95168.97;5075158;28;20947;-78
2021/08/23 00:50:22;;;;;;;8.30;7.40;;;;;;;22.01;58.61;95163.72;5074970;28;20935;-78
2021/08/23 00:52:49;;;;;;;9.23;7.30;;;;;;;22.04;58.58;95158.00;5056446;28;20438;-78
2021/08/23 00:55:16;;;;;;;7.43;6.73;;;;;;;22.07;58.68;95162.97;5075001;28;20524;-78
2021/08/23 00:57:44;;;;;;;7.80;7.10;;;;;;;22.15;58.42;95153.97;5074926;28;20447;-78
2021/08/23 01:00:12;;;;;;;11.30;8.20;;;;;;;22.20;57.96;95152.34;5074773;28;20493;-78
2021/08/23 01:02:45;;;;;;;8.10;6.93;;;;;;;22.27;58.33;95155.09;5039654;28;20441;-78
2021/08/23 01:05:18;;;;;;;8.23;6.77;;;;;;;22.33;58.05;95151.63;5074869;28;20444;-78
2021/08/23 01:07:50;;;;;;;7.10;6.40;;;;;;;22.36;58.13;95155.75;5074638;28;20446;-78
2021/08/23 01:10:24;;;;;;;8.37;7.40;;;;;;;22.40;57.79;95155.16;5074498;28;20460;-78
2021/08/23 01:12:51;;;;;;;7.40;6.67;;;;;;;22.00;58.81;95146.03;5074603;28;20446;-78
2021/08/23 01:15:18;;;;;;;7.63;6.93;;;;;;;22.10;58.41;95146.53;5074476;28;20488;-79
2021/08/23 01:17:45;;;;;;;7.80;7.10;;;;;;;22.20;58.41;95147.00;5074519;28;20447;-78
2021/08/23 01:20:13;;;;;;;7.03;6.30;;;;;;;22.19;58.31;95148.03;5074918;28;20488;-79
2021/08/23 01:22:45;;;;;;;8.33;7.03;;;;;;;22.22;58.14;95155.66;5076403;28;20965;-78
2021/08/23 01:25:15;;;;;;;7.43;6.73;;;;;;;22.13;58.11;95146.16;5063758;28;20552;-79
2021/08/23 01:27:53;;;;;;;8.83;7.97;;;;;;;22.14;58.40;95145.13;5077860;28;20453;-78
2021/08/23 01:30:21;;;;;;;8.33;6.63;;;;;;;22.17;58.44;95147.41;5074506;28;20446;-78
2021/08/23 01:32:49;;;;;;;8.10;7.30;;;;;;;22.20;58.44;95147.00;5073866;28;20449;-78
2021/08/23 01:35:16;;;;;;;7.67;6.90;;;;;;;22.21;58.60;95132.63;5074738;28;20453;-78
2021/08/23 01:37:43;;;;;;;8.90;7.07;;;;;;;22.27;58.31;95140.91;5073915;28;20446;-78
2021/08/23 01:40:11;;;;;;;12.93;7.73;;;;;;;22.30;58.29;95141.34;5073900;28;20930;-79
2021/08/23 01:42:39;;;;;;;7.33;6.63;;;;;;;22.29;58.44;95141.53;5074210;28;20935;-78
2021/08/23 01:45:07;;;;;;;9.00;7.90;;;;;;;22.18;58.56;95149.06;5074452;28;20450;-78
2021/08/23 01:47:34;;;;;;;8.10;7.10;;;;;;;22.19;58.38;95133.84;5073783;28;20449;-78
2021/08/23 01:50:02;;;;;;;8.80;7.00;;;;;;;22.15;58.35;95128.06;5073688;28;20438;-78
2021/08/23 01:52:29;;;;;;;7.97;7.20;;;;;;;22.15;58.56;95127.25;5073744;28;20915;-78
2021/08/23 01:54:56;;;;;;;7.83;6.93;;;;;;;22.06;58.93;95123.06;5073698;28;20449;-78
2021/08/23 01:57:23;;;;;;;9.43;7.77;;;;;;;22.12;58.71;95123.09;5074015;28;20446;-78
2021/08/23 01:59:50;;;;;;;8.27;7.30;;;;;;;22.11;58.59;95124.13;5073826;28;20492;-78
2021/08/23 02:02:17;;;;;;;7.83;6.63;;;;;;;22.02;58.75;95127.94;5055059;28;20545;-78
2021/08/23 02:04:44;;;;;;;8.97;7.00;;;;;;;21.95;59.01;95124.38;5073488;28;20441;-79
2021/08/23 02:07:13;;;;;;;9.57;7.53;;;;;;;21.89;59.25;95127.84;5054923;28;20522;-79
2021/08/23 02:09:40;;;;;;;8.30;6.60;;;;;;;21.72;60.00;95121.97;5073717;28;20464;-78
2021/08/23 02:12:07;;;;;;;8.27;7.30;;;;;;;21.70;60.09;95132.03;5073728;28;20493;-78
2021/08/23 02:14:35;;;;;;;10.50;8.00;;;;;;;21.64;60.06;95125.56;5054803;28;20495;-78
2021/08/23 02:17:02;;;;;;;8.07;7.40;;;;;;;21.53;60.65;95130.63;5054772;28;20444;-79
2021/08/23 02:19:29;;;;;;;7.47;6.50;;;;;;;21.54;60.56;95132.28;5073385;28;20445;-78
2021/08/23 02:21:57;;;;;;;7.73;7.00;;;;;;;21.55;60.52;95128.56;5073721;28;20805;-78
2021/08/23 02:24:28;;;;;;;8.60;6.67;;;;;;;21.53;60.48;95126.09;5073466;28;20925;-78
2021/08/23 02:26:55;;;;;;;11.73;7.50;;;;;;;21.53;60.66;95126.09;5073131;28;20920;-78
2021/08/23 02:29:22;;;;;;;7.73;6.40;;;;;;;21.52;60.65;95113.78;5073471;28;20448;-79
2021/08/23 02:31:49;;;;;;;10.10;6.70;;;;;;;21.52;60.48;95111.09;5073071;28;20917;-78
2021/08/23 02:34:16;;;;;;;9.33;7.03;;;;;;;21.48;60.77;95114.34;5073564;28;20452;-78
2021/08/23 02:36:43;;;;;;;7.90;7.20;;;;;;;21.42;61.15;95115.94;5073132;28;20446;-78
2021/08/23 02:39:10;;;;;;;8.37;7.60;;;;;;;21.40;61.08;95109.97;5073131;28;20801;-79
2021/08/23 02:41:38;;;;;;;11.13;7.57;;;;;;;21.40;60.92;95117.16;5073030;28;20490;-79
2021/08/23 02:44:05;;;;;;;10.67;7.67;;;;;;;21.32;61.46;95110.06;5072414;28;20806;-78
2021/08/23 02:46:32;;;;;;;8.60;7.80;;;;;;;21.16;61.99;95107.66;5073278;28;20444;-78
2021/08/23 02:48:59;;;;;;;7.60;6.90;;;;;;;21.11;61.87;95102.06;5073188;28;20796;-79
2021/08/23 02:51:26;;;;;;;8.57;7.77;;;;;;;20.83;63.18;95108.13;5054321;28;20451;-79
2021/08/23 02:53:53;;;;;;;9.27;7.80;;;;;;;20.71;63.84;95106.94;5037748;28;20447;-78
2021/08/23 02:56:20;;;;;;;10.23;8.33;;;;;;;20.75;63.50;95102.88;5072942;28;20526;-78
2021/08/23 02:58:48;;;;;;;13.93;8.67;;;;;;;20.77;63.63;95111.50;5072880;28;20444;-78
2021/08/23 03:01:15;;;;;;;9.33;8.43;;;;;;;20.80;63.48;95111.13;5072905;28;20834;-79
2021/08/23 03:03:42;;;;;;;10.30;8.50;;;;;;;20.71;63.81;95112.25;5073061;28;20539;-78
2021/08/23 03:06:09;;;;;;;10.10;7.03;;;;;;;20.72;63.78;95105.91;5072945;28;20917;-79
2021/08/23 03:08:36;;;;;;;17.80;8.30;;;;;;;20.84;63.26;95106.28;5072731;28;20452;-78
2021/08/23 03:11:08;;;;;;;11.53;7.43;;;;;;;20.90;63.48;95110.84;5072910;28;20560;-79
2021/08/23 03:13:36;;;;;;;8.00;7.20;;;;;;;20.90;63.12;95111.69;5072889;28;20456;-78
2021/08/23 03:16:05;;;;;;;8.97;7.30;;;;;;;20.78;63.85;95107.81;5073080;28;20451;-78
2021/08/23 03:18:32;;;;;;;8.10;7.30;;;;;;;20.71;63.75;95117.59;5037325;28;20523;-78
2021/08/23 03:20:59;;;;;;;10.83;8.60;;;;;;;20.51;64.60;95116.50;5072934;28;20487;-78
2021/08/23 03:23:26;;;;;;;8.27;7.03;;;;;;;20.55;64.80;95115.16;5072514;28;20451;-78
2021/08/23 03:25:53;;;;;;;8.43;7.53;;;;;;;20.61;64.87;95111.72;5072386;28;20441;-78
2021/08/23 03:28:20;;;;;;;10.03;8.40;;;;;;;20.45;65.12;95111.91;5072603;28;20535;-78
2021/08/23 03:30:47;;;;;;;9.30;8.17;;;;;;;20.45;65.09;95114.59;5037461;28;20458;-78
2021/08/23 03:33:16;;;;;;;9.80;8.07;;;;;;;20.47;65.02;95120.56;5072514;28;20448;-79
2021/08/23 03:35:44;;;;;;;7.73;6.93;;;;;;;20.31;65.55;95124.22;5072695;28;20917;-79
2021/08/23 03:38:11;;;;;;;8.47;7.67;;;;;;;20.10;66.37;95125.78;5072524;28;20448;-79
2021/08/23 03:40:41;;;;;;;8.47;7.67;;;;;;;19.95;66.93;95127.63;5072317;28;20494;-78
2021/08/23 03:43:08;;;;;;;8.97;6.93;;;;;;;20.14;66.51;95131.56;5072895;28;20443;-78
2021/08/23 03:45:35;;;;;;;8.30;7.53;;;;;;;20.29;66.13;95129.75;5072238;28;20449;-78
2021/08/23 03:48:03;;;;;;;9.37;7.87;;;;;;;20.40;65.69;95123.97;5072608;28;20456;-78
2021/08/23 03:50:31;;;;;;;7.73;7.03;;;;;;;20.31;65.72;95119.72;5072462;28;20450;-78
2021/08/23 03:52:58;;;;;;;9.00;8.20;;;;;;;20.44;65.63;95128.94;5072407;28;20795;-78
2021/08/23 03:55:25;;;;;;;8.83;7.93;;;;;;;20.46;65.43;95132.25;5074868;28;20535;-78
2021/08/23 03:57:52;;;;;;;8.60;7.83;;;;;;;20.49;65.31;95126.53;5075716;28;20461;-78
2021/08/23 04:00:19;;;;;;;9.97;8.50;;;;;;;20.49;65.44;95130.03;5076289;28;20482;-78
2021/08/23 04:02:46;;;;;;;8.77;7.90;;;;;;;20.57;65.15;95129.13;5075969;28;20448;-78
2021/08/23 04:05:14;;;;;;;10.10;7.77;;;;;;;20.59;65.27;95135.09;5040778;28;20483;-79
2021/08/23 04:07:42;;;;;;;8.37;7.53;;;;;;;20.46;65.54;95125.06;5076009;28;20495;-78
2021/08/23 04:10:10;;;;;;;8.47;7.57;;;;;;;20.53;65.39;95128.66;5075510;28;20940;-78
2021/08/23 04:12:37;;;;;;;8.57;7.77;;;;;;;20.60;65.03;95137.56;5075626;28;20452;-79
2021/08/23 04:15:05;;;;;;;9.23;8.33;;;;;;;20.72;65.04;95127.25;5076021;28;20758;-79
2021/08/23 04:17:32;;;;;;;8.80;8.00;;;;;;;20.82;64.33;95127.81;5024177;28;20437;-78
2021/08/23 04:20:01;;;;;;;7.80;7.00;;;;;;;20.99;64.08;95136.41;5075600;28;21016;-78
2021/08/23 04:22:28;;;;;;;8.03;7.33;;;;;;;21.22;63.47;95125.56;5056686;28;20433;-78
2021/08/23 04:24:56;;;;;;;13.20;6.47;;;;;;;21.54;62.32;95130.44;5075772;28;20448;-78
2021/08/23 04:27:23;;;;;;;8.47;7.67;;;;;;;21.97;61.05;95125.00;5075560;28;20448;-79
2021/08/23 04:29:50;;;;;;;9.00;8.07;;;;;;;22.42;59.34;95134.41;5075445;28;20449;-80
2021/08/23 04:32:17;;;;;;;9.97;7.53;;;;;;;22.82;58.31;95130.09;5075767;28;20454;-79
2021/08/23 04:34:44;;;;;;;8.27;7.47;;;;;;;23.26;56.67;95128.00;5075336;28;20440;-79
2021/08/23 04:37:11;;;;;;;7.00;6.40;;;;;;;23.67;55.89;95133.22;5075627;28;20462;-79
2021/08/23 04:39:38;;;;;;;12.93;8.00;;;;;;;23.96;54.07;95130.16;5075556;28;20446;-79
2021/08/23 04:42:07;;;;;;;12.17;7.67;;;;;;;23.94;54.48;95132.22;5075312;28;20819;-79
2021/08/23 04:44:34;;;;;;;12.83;8.40;;;;;;;24.13;53.69;95135.09;5075061;28;20462;-79
2021/08/23 04:47:01;;;;;;;15.50;7.27;;;;;;;24.49;53.73;95143.53;5075041;28;20447;-79
2021/08/23 04:49:28;;;;;;;12.10;7.67;;;;;;;24.79;53.40;95138.50;5075181;28;20457;-79
2021/08/23 04:51:55;;;;;;;11.23;8.20;;;;;;;25.00;51.38;95134.72;5074999;28;20538;-78
2021/08/23 04:54:22;;;;;;;10.87;6.90;;;;;;;25.24;51.15;95130.50;5074961;28;20448;-79
2021/08/23 04:56:49;;;;;;;10.77;7.33;;;;;;;25.12;51.18;95137.56;5075489;28;20526;-79
2021/08/23 04:59:17;;;;;;;11.60;8.10;;;;;;;25.31;51.00;95132.09;5075249;28;20448;-79
2021/08/23 05:01:44;;;;;;;15.20;8.00;;;;;;;25.43;50.63;95128.72;5074401;28;20572;-79
2021/08/23 05:04:11;;;;;;;10.03;8.20;;;;;;;25.54;49.68;95130.72;5039135;28;20453;-79
2021/08/23 05:06:38;;;;;;;9.60;8.70;;;;;;;25.53;49.20;95126.41;5073333;28;20456;-78
2021/08/23 05:09:05;;;;;;;11.83;7.17;;;;;;;25.66;49.23;95120.91;5074481;28;20455;-78
2021/08/23 05:11:32;;;;;;;10.87;7.33;;;;;;;25.81;48.64;95132.22;5074070;28;20477;-78
2021/08/23 05:13:59;;;;;;;8.93;7.03;;;;;;;26.01;47.84;95123.97;5074204;28;20466;-79
2021/08/23 05:16:28;;;;;;;8.83;7.67;;;;;;;26.11;47.34;95126.19;5074565;28;20509;-78
2021/08/23 05:18:55;;;;;;;13.50;7.60;;;;;;;25.91;47.42;95120.97;5074312;28;20862;-78
2021/08/23 05:21:21;;;;;;;8.13;7.33;;;;;;;26.10;47.63;95119.16;5074272;28;20576;-80
2021/08/23 05:23:48;;;;;;;13.43;7.97;;;;;;;25.97;47.87;95119.25;5045077;28;20865;-79
2021/08/23 05:26:15;;;;;;;9.30;6.90;;;;;;;25.58;48.55;95116.63;5078412;28;20532;-79
2021/08/23 05:28:42;;;;;;;8.93;7.30;;;;;;;25.38;49.76;95120.47;5074009;28;20805;-79
2021/08/23 05:31:09;;;;;;;7.63;6.77;;;;;;;25.73;49.33;95119.03;5074590;28;20443;-79
2021/08/23 05:33:38;;;;;;;12.10;6.50;;;;;;;26.06;48.69;95118.78;5075029;28;20535;-79
2021/08/23 05:36:05;;;;;;;7.70;6.53;;;;;;;26.10;47.77;95120.00;5074094;28;20874;-79
2021/08/23 05:38:32;;;;;;;8.77;6.47;;;;;;;25.79;48.23;95118.19;5074162;28;20491;-79
2021/08/23 05:40:59;;;;;;;7.00;6.40;;;;;;;25.65;48.80;95116.59;5055577;28;20490;-79
2021/08/23 05:43:26;;;;;;;8.43;6.60;;;;;;;25.89;48.58;95118.50;5073967;28;20458;-79
2021/08/23 05:45:53;;;;;;;7.70;7.00;;;;;;;26.21;47.57;95118.44;5074180;28;20444;-79
2021/08/23 05:48:20;;;;;;;14.97;7.33;;;;;;;26.55;46.89;95109.84;5073973;28;20444;-79
2021/08/23 05:50:48;;;;;;;7.30;6.70;;;;;;;26.60;46.91;95113.72;5055315;28;20511;-79
2021/08/23 05:53:15;;;;;;;7.13;6.47;;;;;;;26.57;46.60;95119.56;5055234;28;20945;-79
2021/08/23 05:55:42;;;;;;;9.13;8.10;;;;;;;26.94;46.39;95115.00;5073967;28;20449;-79
2021/08/23 05:58:09;;;;;;;9.37;7.90;;;;;;;27.07;45.91;95115.69;5073642;28;20449;-79
2021/08/23 06:00:36;;;;;;;26.40;22.57;;;;;;;27.29;45.85;95107.94;5073200;28;20445;-79
2021/08/23 06:03:03;;;;;;;11.73;10.67;;;;;;;27.52;44.99;95111.78;5073677;28;20448;-79
2021/08/23 06:05:30;;;;;;;7.50;6.80;;;;;;;27.63;43.67;95113.72;5073591;28;20502;-79
2021/08/23 06:07:59;;;;;;;11.70;6.50;;;;;;;27.62;43.87;95112.88;5054752;28;20467;-79
2021/08/23 06:10:26;;;;;;;23.80;19.63;;;;;;;27.48;45.19;95118.69;5073193;28;20916;-79
2021/08/23 06:12:53;;;;;;;10.67;8.33;;;;;;;27.71;43.31;95118.75;5073429;28;20446;-79
2021/08/23 06:15:20;;;;;;;10.20;6.33;;;;;;;27.71;44.18;95121.47;5073820;28;20460;-78
2021/08/23 06:17:47;;;;;;;19.47;14.97;;;;;;;27.82;44.48;95123.38;5073607;28;20759;-78
2021/08/23 06:20:15;;;;;;;13.53;9.00;;;;;;;27.92;43.69;95122.81;5073223;28;20532;-79
2021/08/23 06:22:43;;;;;;;13.80;7.70;;;;;;;28.05;42.95;95117.22;5038171;28;20480;-79
2021/08/23 06:25:12;;;;;;;11.60;7.03;;;;;;;28.34;41.88;95121.72;5073050;28;20457;-79
2021/08/23 06:27:39;;;;;;;14.17;7.43;;;;;;;28.55;41.03;95119.47;5073498;28;20933;-79
2021/08/23 06:30:06;;;;;;;14.73;7.77;;;;;;;28.64;41.33;95120.75;5072934;28;20441;-79
2021/08/23 06:32:33;;;;;;;12.00;8.00;;;;;;;28.62;41.32;95120.16;5072255;28;20453;-79
2021/08/23 06:35:02;;;;;;;8.77;7.30;;;;;;;28.74;40.89;95114.75;5072142;28;20455;-79
2021/08/23 06:37:30;;;;;;;12.07;7.37;;;;;;;28.76;40.46;95120.72;5072328;28;20464;-79
2021/08/23 06:39:58;;;;;;;11.50;6.50;;;;;;;28.81;41.13;95116.25;5055879;28;20494;-79
2021/08/23 06:42:27;;;;;;;9.50;8.20;;;;;;;28.87;40.81;95120.72;5072078;28;20983;-79
2021/08/23 06:44:54;;;;;;;7.90;7.10;;;;;;;29.01;40.99;95120.47;5072256;28;20444;-79
2021/08/23 06:47:21;;;;;;;19.30;7.70;;;;;;;29.17;40.96;95117.84;5072241;28;20528;-79
2021/08/23 06:49:48;;;;;;;6.70;6.10;;;;;;;29.32;39.75;95116.50;5072232;28;20445;-79
2021/08/23 06:52:14;;;;;;;8.40;6.83;;;;;;;29.46;39.33;95123.28;5072202;28;20437;-79
2021/08/23 06:54:41;;;;;;;10.10;6.73;;;;;;;29.59;39.98;95123.81;5037325;28;20531;-79
2021/08/23 06:57:08;;;;;;;10.10;6.77;;;;;;;29.64;39.38;95122.28;5071958;28;20455;-79
2021/08/23 06:59:37;;;;;;;6.00;5.40;;;;;;;29.57;38.79;95114.31;5071868;28;20806;-79
2021/08/23 07:02:04;;;;;;;6.40;5.80;;;;;;;29.59;38.60;95115.72;5071990;28;20507;-79
2021/08/23 07:04:31;;;;;;;12.10;8.60;;;;;;;29.70;38.29;95114.00;5053310;28;20433;-79
2021/08/23 07:06:58;;;;;;;13.57;6.80;;;;;;;29.54;38.38;95110.22;5072267;28;20858;-79
2021/08/23 07:09:25;;;;;;;5.67;5.23;;;;;;;29.63;38.32;95109.81;5071829;28;20525;-79
2021/08/23 07:11:51;;;;;;;7.17;6.33;;;;;;;29.38;39.50;95108.25;5071977;28;20482;-79
2021/08/23 07:14:18;;;;;;;6.80;6.10;;;;;;;29.36;38.67;95107.66;5036835;28;20887;-79
2021/08/23 07:16:47;;;;;;;7.97;6.70;;;;;;;29.57;39.63;95100.78;5071918;28;20950;-79
2021/08/23 07:19:14;;;;;;;7.50;6.80;;;;;;;29.67;38.60;95100.13;5071891;28;20444;-79
2021/08/23 07:21:41;;;;;;;7.07;6.37;;;;;;;29.82;37.95;95095.00;5071695;28;20996;-79
2021/08/23 07:24:10;;;;;;;7.57;6.87;;;;;;;30.08;37.99;95097.09;5071806;28;20451;-79
2021/08/23 07:26:37;;;;;;;8.40;7.53;;;;;;;30.31;37.64;95084.44;5072095;28;20445;-79
2021/08/23 07:29:04;;;;;;;6.80;6.10;;;;;;;30.35;37.56;95085.56;5072206;28;20528;-79
2021/08/23 07:31:31;;;;;;;11.97;10.07;;;;;;;30.11;37.26;95088.47;5075648;28;21214;-79
2021/08/23 07:33:59;;;;;;;8.07;6.40;;;;;;;30.05;37.27;95086.75;5075628;28;20817;-79
2021/08/23 07:36:26;;;;;;;6.97;6.33;;;;;;;30.02;37.86;95079.09;5075668;28;20437;-79
2021/08/23 07:38:53;;;;;;;6.60;6.00;;;;;;;30.16;37.33;95083.16;5056879;28;20538;-79
2021/08/23 07:41:20;;;;;;;7.17;6.57;;;;;;;30.21;37.61;95075.09;5075184;28;20484;-79
2021/08/23 07:43:50;;;;;;;18.93;9.53;;;;;;;30.36;37.77;95079.06;5056732;28;20454;-79
2021/08/23 07:46:17;;;;;;;6.07;5.57;;;;;;;30.53;37.22;95086.13;5040448;28;20523;-79
2021/08/23 07:48:44;;;;;;;13.63;12.30;;;;;;;30.39;36.46;95090.25;5075367;28;20496;-79
2021/08/23 07:51:13;;;;;;;11.30;7.03;;;;;;;30.52;37.30;95084.47;5075421;28;20445;-79
2021/08/23 07:53:40;;;;;;;6.30;5.80;;;;;;;30.69;36.32;95081.78;5075369;28;20449;-79
2021/08/23 07:56:07;;;;;;;6.53;5.93;;;;;;;30.81;36.22;95082.47;5075470;28;20462;-80
2021/08/23 07:58:34;;;;;;;6.83;6.20;;;;;;;30.74;35.89;95076.41;5075139;28;20511;-79
2021/08/23 08:01:01;;;;;;;7.03;6.33;;;;;;;30.86;36.39;95072.75;5075143;28;20447;-79
2021/08/23 08:03:28;;;;;;;8.93;6.47;;;;;;;30.42;37.06;95072.69;5056399;28;20488;-79
2021/08/23 08:05:55;;;;;;;7.60;6.90;;;;;;;30.59;36.83;95075.34;5075402;28;20531;-79
2021/08/23 08:08:23;;;;;;;6.90;6.10;;;;;;;30.86;36.55;95072.75;5075040;28;20455;-79
2021/08/23 08:10:50;;;;;;;8.70;6.30;;;;;;;30.94;36.03;95072.31;5075021;28;20559;-79
2021/08/23 08:13:17;;;;;;;7.47;6.27;;;;;;;30.79;36.77;95065.63;5074735;28;20476;-79
2021/08/23 08:15:44;;;;;;;6.93;6.20;;;;;;;30.62;37.27;95062.16;5075266;28;20440;-79
2021/08/23 08:18:11;;;;;;;8.53;6.30;;;;;;;30.66;37.50;95057.06;5075099;28;20448;-79
2021/08/23 08:20:38;;;;;;;6.70;6.13;;;;;;;30.76;37.06;95063.44;5075175;28;20445;-79
2021/08/23 08:23:05;;;;;;;8.80;7.23;;;;;;;30.89;37.10;95059.50;5074880;28;20570;-79
2021/08/23 08:25:33;;;;;;;12.73;6.50;;;;;;;30.89;37.13;95059.50;5074772;28;20455;-79
2021/08/23 08:28:00;;;;;;;7.70;6.90;;;;;;;30.94;36.87;95062.31;5074796;28;20496;-79
2021/08/23 08:30:27;;;;;;;7.50;6.80;;;;;;;30.99;36.49;95050.69;5074532;28;20440;-79
2021/08/23 08:32:54;;;;;;;7.87;6.13;;;;;;;31.03;36.58;95049.13;5074492;28;20955;-79
2021/08/23 08:35:22;;;;;;;6.73;6.23;;;;;;;30.85;36.80;95052.16;5074715;28;20463;-79
2021/08/23 08:37:49;;;;;;;7.83;5.87;;;;;;;30.88;36.71;95048.94;5074617;28;20523;-79
2021/08/23 08:40:16;;;;;;;7.80;6.43;;;;;;;30.83;37.03;95055.94;5074074;28;20445;-79
2021/08/23 08:42:45;;;;;;;11.30;6.50;;;;;;;30.79;37.08;95043.97;5073532;28;20483;-79
2021/08/23 08:45:12;;;;;;;16.13;6.90;;;;;;;30.79;37.30;95046.66;5074608;28;20445;-79
2021/08/23 08:47:41;;;;;;;7.00;6.40;;;;;;;30.87;37.00;95056.25;5074428;28;20527;-79
2021/08/23 08:50:10;;;;;;;6.70;5.97;;;;;;;30.97;36.57;95042.00;5074211;28;20441;-79
2021/08/23 08:52:38;;;;;;;6.60;5.80;;;;;;;31.23;35.85;95043.16;5039461;28;20451;-79
2021/08/23 08:55:06;;;;;;;8.40;6.43;;;;;;;31.33;35.33;95049.47;5074626;28;20528;-79
2021/08/23 08:57:33;;;;;;;8.30;5.70;;;;;;;31.31;36.11;95046.22;5073877;28;20456;-79
2021/08/23 09:00:01;;;;;;;7.80;6.93;;;;;;;31.22;36.03;95041.47;5074102;28;20455;-79
2021/08/23 09:02:28;;;;;;;9.80;6.63;;;;;;;31.32;36.27;95042.41;5074027;28;20523;-79
2021/08/23 09:04:55;;;;;;;7.93;6.33;;;;;;;31.27;35.65;95038.84;5055283;28;20538;-79
2021/08/23 09:07:22;;;;;;;11.37;6.53;;;;;;;31.05;35.79;95036.13;5073935;28;20798;-79
2021/08/23 09:09:49;;;;;;;9.73;6.83;;;;;;;30.98;36.52;95040.94;5074145;28;20441;-79
2021/08/23 09:12:16;;;;;;;9.03;6.00;;;;;;;31.09;36.28;95029.13;5073824;28;20489;-79
2021/08/23 09:14:51;;;;;;;12.27;7.23;;;;;;;31.28;35.82;95026.94;5074330;28;20527;-79
2021/08/23 09:17:22;;;;;;;6.77;5.67;;;;;;;31.28;35.86;95022.31;5073868;28;20524;-79
2021/08/23 09:19:57;;;;;;;6.40;5.90;;;;;;;31.47;35.67;95016.50;5075469;28;20445;-79
2021/08/23 09:22:26;;;;;;;10.90;5.67;;;;;;;31.46;36.10;95025.72;5077828;28;20484;-79
2021/08/23 09:24:54;;;;;;;6.07;5.53;;;;;;;31.50;34.28;95022.22;5073737;28;20532;-80
2021/08/23 09:27:21;;;;;;;6.60;5.40;;;;;;;31.68;34.67;95011.00;5073611;28;20451;-80
2021/08/23 09:29:56;;;;;;;7.30;6.23;;;;;;;31.85;33.72;95010.91;5038390;28;20953;-81
2021/08/23 09:32:25;;;;;;;30.57;8.10;;;;;;;31.96;32.69;95006.38;5073425;28;20444;-84
2021/08/23 09:34:53;;;;;;;6.63;6.10;;;;;;;31.72;33.45;95008.63;5073338;28;20451;-84
2021/08/23 09:37:21;;;;;;;15.47;7.00;;;;;;;31.90;32.84;95010.13;5072867;28;20445;-84
2021/08/23 09:39:49;;;;;;;7.57;6.00;;;;;;;31.79;34.10;94998.34;5074202;28;20527;-83
2021/08/23 09:42:21;;;;;;;7.43;6.73;;;;;;;32.01;33.63;94990.09;5074027;28;20477;-82
2021/08/23 09:44:49;;;;;;;8.23;6.20;;;;;;;32.15;33.51;94990.47;5074264;28;20513;-83
2021/08/23 09:47:16;;;;;;;6.10;5.53;;;;;;;32.22;32.72;94993.78;5074107;28;20917;-84
2021/08/23 09:49:47;;;;;;;10.60;9.07;;;;;;;31.72;31.91;94989.63;5074851;28;20429;-84
2021/08/23 09:52:21;;;;;;;7.47;6.50;;;;;;;31.34;31.13;94990.63;5074152;28;20428;-83
2021/08/23 09:54:59;;;;;;;12.10;6.20;;;;;;;31.40;31.61;94984.19;5073746;28;20455;-82
2021/08/23 09:57:27;;;;;;;8.10;7.50;;;;;;;31.34;31.21;94982.50;5072920;28;20539;-84
2021/08/23 09:59:55;;;;;;;7.10;6.50;;;;;;;31.11;32.19;94972.75;5052475;28;20489;-83
2021/08/23 10:02:23;;;;;;;6.90;6.40;;;;;;;30.85;32.16;94976.25;5072998;28;20480;-84
2021/08/23 10:04:52;;;;;;;7.67;5.90;;;;;;;30.53;33.56;94975.06;5072754;28;20524;-84
2021/08/23 10:07:20;;;;;;;6.47;5.97;;;;;;;30.24;32.92;94975.50;5073259;28;20532;-84
2021/08/23 10:09:48;;;;;;;6.57;6.07;;;;;;;30.15;33.32;94965.09;5072909;28;20523;-79
2021/08/23 10:12:15;;;;;;;6.43;5.93;;;;;;;30.27;32.59;94964.97;5072966;28;20477;-79
2021/08/23 10:14:43;;;;;;;8.90;6.50;;;;;;;30.23;32.05;94966.53;5072671;28;20906;-79
2021/08/23 10:17:10;;;;;;;10.53;6.80;;;;;;;30.51;32.46;94969.06;5073590;28;20463;-80
2021/08/23 10:19:38;;;;;;;6.27;5.50;;;;;;;30.58;32.28;94968.88;5073497;28;20445;-79
2021/08/23 10:22:07;;;;;;;10.97;6.73;;;;;;;30.63;31.87;94962.72;5073033;28;20441;-79
2021/08/23 10:24:34;;;;;;;9.77;6.63;;;;;;;30.82;31.73;94962.16;5053761;28;20433;-79
2021/08/23 10:27:01;;;;;;;8.03;7.20;;;;;;;30.90;31.40;94960.88;5072488;28;20528;-81
2021/08/23 10:29:39;;;;;;;9.37;6.43;;;;;;;31.08;31.86;94965.13;5053887;28;20539;-81
2021/08/23 10:32:09;;;;;;;8.03;5.87;;;;;;;30.68;30.51;94957.41;5072628;28;20452;-80
2021/08/23 10:34:37;;;;;;;6.27;5.77;;;;;;;30.45;30.68;94959.25;5072358;28;20448;-79
2021/08/23 10:37:16;;;;;;;7.53;6.93;;;;;;;30.58;31.45;94958.03;5072371;28;20551;-79
2021/08/23 10:39:43;;;;;;;7.10;6.50;;;;;;;30.61;31.22;94959.47;5072205;28;21011;-79
2021/08/23 10:42:12;;;;;;;5.87;5.47;;;;;;;30.51;32.03;94957.44;5053497;28;20441;-79
2021/08/23 10:44:40;;;;;;;6.77;6.20;;;;;;;30.19;32.00;94955.41;5072283;28;20451;-79
2021/08/23 10:47:09;;;;;;;8.07;7.27;;;;;;;30.29;31.47;94943.88;5072640;28;20540;-79
2021/08/23 10:49:40;;;;;;;6.10;5.70;;;;;;;30.38;31.11;94933.44;5072457;28;20445;-79
2021/08/23 10:52:09;;;;;;;11.43;6.10;;;;;;;30.16;31.85;94934.25;5073143;28;20960;-79
2021/08/23 10:54:37;;;;;;;6.57;5.90;;;;;;;30.29;31.33;94921.41;5072830;28;20523;-79
2021/08/23 10:57:06;;;;;;;8.43;5.90;;;;;;;30.46;33.03;94919.44;5037827;28;20444;-79
2021/08/23 10:59:44;;;;;;;7.90;5.83;;;;;;;30.29;31.75;94914.09;5073188;28;20452;-79
2021/08/23 11:02:13;;;;;;;6.20;5.70;;;;;;;30.18;31.30;94910.44;5054192;28;20783;-79
2021/08/23 11:04:42;;;;;;;13.23;7.43;;;;;;;30.07;30.92;94908.69;5074027;28;20535;-80
2021/08/23 11:07:12;;;;;;;6.93;5.90;;;;;;;30.14;32.18;94913.91;5077070;28;20459;-80
2021/08/23 11:09:42;;;;;;;8.50;5.80;;;;;;;30.31;30.61;94909.25;5077056;28;20456;-80
2021/08/23 11:12:12;;;;;;;6.27;5.67;;;;;;;30.27;30.96;94908.13;5077320;28;20479;-80
2021/08/23 11:14:44;;;;;;;5.77;5.30;;;;;;;30.39;29.84;94905.28;5077354;28;20787;-80
2021/08/23 11:17:11;;;;;;;5.33;4.93;;;;;;;30.40;31.19;94891.50;5077036;28;20523;-80
2021/08/23 11:19:40;;;;;;;6.37;5.77;;;;;;;30.38;31.71;94893.66;5077089;28;20535;-79
2021/08/23 11:22:07;;;;;;;9.83;5.70;;;;;;;30.59;30.91;94899.28;5076552;28;20448;-83
2021/08/23 11:24:37;;;;;;;9.60;5.37;;;;;;;30.73;30.19;94895.94;5076575;28;20527;-82
2021/08/23 11:27:05;;;;;;;6.50;5.27;;;;;;;30.76;29.57;94894.63;5076972;28;20449;-82
2021/08/23 11:29:33;;;;;;;6.60;6.00;;;;;;;30.94;29.33;94896.97;5077234;28;20448;-83
2021/08/23 11:32:02;;;;;;;9.23;6.17;;;;;;;30.89;29.64;94896.91;5076797;28;20924;-83
2021/08/23 11:34:30;;;;;;;5.90;5.40;;;;;;;30.80;29.01;94885.72;5076726;28;20445;-83